createdAt,value
2019-04-05T00:00:57.357Z,14.90
2019-04-05T00:01:57.343Z,13.90
2019-04-05T00:02:57.331Z,14.20
2019-04-05T00:03:57.307Z,14.00
2019-04-05T00:04:57.288Z,13.70
2019-04-05T00:05:57.268Z,13.80
2019-04-05T00:06:57.256Z,14.50
2019-04-05T00:07:57.253Z,14.00
2019-04-05T00:08:57.214Z,14.40
2019-04-05T00:09:57.199Z,14.30
2019-04-05T00:10:57.183Z,14.60
2019-04-05T00:11:57.165Z,14.00
2019-04-05T00:12:57.146Z,15.20
2019-04-05T00:13:57.127Z,14.90
2019-04-05T00:14:57.109Z,14.80
2019-04-05T00:15:57.095Z,14.50
2019-04-05T00:16:57.076Z,14.20
2019-04-05T00:17:57.057Z,14.80
2019-04-05T00:18:57.043Z,14.60
2019-04-05T00:19:57.024Z,14.50
2019-04-05T00:20:57.006Z,14.30
2019-04-05T00:21:56.987Z,15.00
2019-04-05T00:22:56.970Z,15.20
2019-04-05T00:23:56.949Z,14.80
2019-04-05T00:24:56.935Z,14.30
2019-04-05T00:25:56.921Z,14.30
2019-04-05T00:26:56.899Z,14.60
2019-04-05T00:27:56.881Z,14.00
2019-04-05T00:28:56.866Z,15.00
2019-04-05T00:29:56.846Z,14.30
2019-04-05T00:30:56.828Z,14.90
2019-04-05T00:31:56.807Z,14.20
2019-04-05T00:32:56.790Z,14.90
2019-04-05T00:33:56.775Z,14.70
2019-04-05T00:34:56.757Z,14.80
2019-04-05T00:35:56.735Z,15.40
2019-04-05T00:36:56.720Z,15.60
2019-04-05T00:37:56.706Z,14.90
2019-04-05T00:38:56.687Z,15.10
2019-04-05T00:39:56.669Z,14.70
2019-04-05T00:40:56.662Z,14.50
2019-04-05T00:41:56.631Z,14.80
2019-04-05T00:42:56.624Z,14.40
2019-04-05T00:43:56.595Z,15.50
2019-04-05T00:44:56.577Z,14.80
2019-04-05T00:45:56.561Z,14.60
2019-04-05T00:46:56.545Z,14.70
2019-04-05T00:47:56.525Z,15.70
2019-04-05T00:48:56.508Z,15.00
2019-04-05T00:49:56.495Z,14.70
2019-04-05T00:50:56.473Z,15.20
2019-04-05T00:51:56.455Z,15.30
2019-04-05T00:52:56.439Z,15.60
2019-04-05T00:53:56.419Z,15.20
2019-04-05T00:54:56.398Z,15.50
2019-04-05T00:55:56.382Z,15.10
2019-04-05T00:56:56.366Z,15.10
2019-04-05T00:57:56.342Z,15.70
2019-04-05T00:58:56.329Z,16.00
2019-04-05T00:59:56.310Z,15.70
2019-04-05T01:00:56.291Z,15.40
2019-04-05T01:01:56.275Z,16.10
2019-04-05T01:02:56.255Z,15.10
2019-04-05T01:03:56.246Z,15.20
2019-04-05T01:04:56.222Z,15.20
2019-04-05T01:05:56.200Z,15.40
2019-04-05T01:06:56.183Z,15.70
2019-04-05T01:07:56.169Z,15.10
2019-04-05T01:08:56.152Z,15.40
2019-04-05T01:09:56.126Z,15.80
2019-04-05T01:10:56.112Z,15.00
2019-04-05T01:11:56.093Z,15.20
2019-04-05T01:12:56.076Z,15.50
2019-04-05T01:13:56.056Z,15.50
2019-04-05T01:14:56.035Z,15.10
2019-04-05T01:15:56.015Z,15.10
2019-04-05T01:16:56.001Z,15.30
2019-04-05T01:17:55.983Z,15.20
2019-04-05T01:18:55.967Z,14.80
2019-04-05T01:19:55.959Z,14.90
2019-04-05T01:20:55.931Z,15.00
2019-04-05T01:21:55.910Z,14.90
2019-04-05T01:22:55.890Z,15.30
2019-04-05T01:23:55.873Z,14.90
2019-04-05T01:24:55.860Z,15.10
2019-04-05T01:25:55.838Z,14.90
2019-04-05T01:26:55.817Z,15.10
2019-04-05T01:27:55.799Z,15.00
2019-04-05T01:28:55.788Z,14.90
2019-04-05T01:29:55.765Z,15.30
2019-04-05T01:30:55.748Z,15.60
2019-04-05T01:31:55.733Z,14.90
2019-04-05T01:32:55.731Z,15.00
2019-04-05T01:33:55.692Z,15.30
2019-04-05T01:34:55.673Z,15.70
2019-04-05T01:35:55.656Z,15.70
2019-04-05T01:36:55.633Z,15.50
2019-04-05T01:37:55.612Z,15.80
2019-04-05T01:38:55.601Z,16.10
2019-04-05T01:39:55.576Z,15.90
2019-04-05T01:40:55.560Z,15.60
2019-04-05T01:41:55.545Z,15.50
2019-04-05T01:42:55.526Z,15.70
2019-04-05T01:43:55.503Z,15.30
2019-04-05T01:44:55.489Z,15.90
2019-04-05T01:45:55.470Z,14.90
2019-04-05T01:46:55.452Z,15.70
2019-04-05T01:47:55.432Z,15.00
2019-04-05T01:48:55.416Z,15.80
2019-04-05T01:49:55.406Z,15.70
2019-04-05T01:50:55.388Z,15.60
2019-04-05T01:51:55.357Z,15.80
2019-04-05T01:52:55.342Z,15.30
2019-04-05T01:53:55.322Z,15.30
2019-04-05T01:54:55.304Z,15.40
2019-04-05T01:55:55.289Z,15.20
2019-04-05T01:56:55.270Z,15.70
2019-04-05T01:57:55.257Z,15.50
2019-04-05T01:58:55.230Z,15.80
2019-04-05T01:59:55.210Z,16.40
2019-04-05T02:00:55.194Z,15.90
2019-04-05T02:01:55.172Z,16.20
2019-04-05T02:02:55.156Z,15.50
2019-04-05T02:03:55.144Z,15.20
2019-04-05T02:04:55.116Z,15.50
2019-04-05T02:05:55.102Z,15.20
2019-04-05T02:06:55.082Z,14.30
2019-04-05T02:07:55.069Z,14.90
2019-04-05T02:08:55.046Z,14.90
2019-04-05T02:09:55.024Z,15.70
2019-04-05T02:10:55.005Z,15.30
2019-04-05T02:11:54.988Z,15.80
2019-04-05T02:12:54.972Z,15.40
2019-04-05T02:13:54.956Z,15.60
2019-04-05T02:14:54.936Z,14.80
2019-04-05T02:16:05.705Z,15.30
2019-04-05T02:16:54.904Z,15.70
2019-04-05T02:17:54.880Z,15.80
2019-04-05T02:18:54.863Z,15.30
2019-04-05T02:19:54.840Z,15.60
2019-04-05T02:20:54.822Z,15.30
2019-04-05T02:21:54.801Z,15.70
2019-04-05T02:22:54.781Z,14.90
2019-04-05T02:23:54.765Z,14.90
2019-04-05T02:24:54.742Z,15.40
2019-04-05T02:25:54.718Z,15.80
2019-04-05T02:26:54.706Z,16.00
2019-04-05T02:27:54.688Z,16.10
2019-04-05T02:28:54.670Z,15.50
2019-04-05T02:29:54.654Z,15.60
2019-04-05T02:30:54.634Z,15.40
2019-04-05T02:31:54.616Z,15.10
2019-04-05T02:32:54.595Z,15.60
2019-04-05T02:33:54.574Z,15.20
2019-04-05T02:34:54.559Z,15.00
2019-04-05T02:35:54.541Z,15.60
2019-04-05T02:36:54.525Z,15.40
2019-04-05T02:37:54.499Z,15.40
2019-04-05T02:38:54.481Z,16.00
2019-04-05T02:39:54.464Z,15.40
2019-04-05T02:40:58.242Z,16.10
2019-04-05T02:41:54.427Z,16.30
2019-04-05T02:42:54.410Z,16.20
2019-04-05T02:43:54.395Z,16.70
2019-04-05T02:44:54.369Z,16.10
2019-04-05T02:45:54.461Z,16.30
2019-04-05T02:46:54.331Z,16.70
2019-04-05T02:47:54.317Z,15.90
2019-04-05T02:48:54.305Z,16.30
2019-04-05T02:49:54.277Z,17.30
2019-04-05T02:50:54.255Z,16.70
2019-04-05T02:51:54.236Z,16.30
2019-04-05T02:52:54.218Z,16.00
2019-04-05T02:53:54.204Z,16.50
2019-04-05T02:54:54.181Z,16.30
2019-04-05T02:55:54.159Z,16.40
2019-04-05T02:56:54.146Z,16.30
2019-04-05T02:57:54.123Z,16.40
2019-04-05T02:58:54.100Z,16.10
2019-04-05T02:59:54.084Z,15.80
2019-04-05T03:00:54.067Z,16.70
2019-04-05T03:01:54.062Z,16.10
2019-04-05T03:02:54.033Z,16.70
2019-04-05T03:03:54.010Z,16.60
2019-04-05T03:04:53.989Z,16.20
2019-04-05T03:05:53.972Z,16.20
2019-04-05T03:06:53.950Z,16.70
2019-04-05T03:07:53.931Z,17.00
2019-04-05T03:08:53.909Z,16.60
2019-04-05T03:09:53.902Z,16.10
2019-04-05T03:10:53.875Z,16.10
2019-04-05T03:11:53.865Z,16.80
2019-04-05T03:12:53.842Z,16.70
2019-04-05T03:13:53.900Z,16.60
2019-04-05T03:14:53.799Z,17.00
2019-04-05T03:15:53.792Z,16.70
2019-04-05T03:16:53.761Z,16.00
2019-04-05T03:17:53.744Z,15.60
2019-04-05T03:18:53.724Z,16.70
2019-04-05T03:19:53.707Z,16.80
2019-04-05T03:20:53.684Z,16.70
2019-04-05T03:21:53.670Z,16.20
2019-04-05T03:22:53.647Z,15.60
2019-04-05T03:23:53.633Z,16.40
2019-04-05T03:24:53.609Z,16.00
2019-04-05T03:25:53.593Z,16.60
2019-04-05T03:26:53.579Z,16.80
2019-04-05T03:27:53.550Z,17.10
2019-04-05T03:28:53.533Z,16.50
2019-04-05T03:29:53.543Z,16.90
2019-04-05T03:30:53.495Z,17.10
2019-04-05T03:31:53.494Z,16.90
2019-04-05T03:32:53.472Z,17.20
2019-04-05T03:33:53.445Z,16.60
2019-04-05T03:34:53.420Z,16.50
2019-04-05T03:35:53.403Z,16.60
2019-04-05T03:36:53.387Z,16.90
2019-04-05T03:37:53.363Z,16.90
2019-04-05T03:38:53.335Z,16.70
2019-04-05T03:39:53.321Z,16.80
2019-04-05T03:40:53.301Z,17.00
2019-04-05T03:41:53.277Z,16.40
2019-04-05T03:42:53.263Z,17.50
2019-04-05T03:43:53.242Z,17.40
2019-04-05T03:44:53.225Z,16.80
2019-04-05T03:45:53.202Z,16.50
2019-04-05T03:46:56.872Z,16.40
2019-04-05T03:47:53.176Z,16.40
2019-04-05T03:48:53.151Z,16.60
2019-04-05T03:49:53.123Z,17.10
2019-04-05T03:50:53.108Z,16.10
2019-04-05T03:51:53.088Z,17.40
2019-04-05T03:52:53.096Z,16.50
2019-04-05T03:53:53.054Z,16.00
2019-04-05T03:54:53.024Z,16.30
2019-04-05T03:55:53.010Z,16.10
2019-04-05T03:56:52.993Z,16.40
2019-04-05T03:57:52.969Z,16.50
2019-04-05T03:58:52.959Z,16.90
2019-04-05T03:59:52.931Z,16.60
2019-04-05T04:00:52.914Z,17.60
2019-04-05T04:01:52.892Z,16.30
2019-04-05T04:02:52.877Z,17.10
2019-04-05T04:03:52.880Z,16.50
2019-04-05T04:04:52.832Z,16.10
2019-04-05T04:05:52.919Z,17.90
2019-04-05T04:06:52.791Z,17.20
2019-04-05T04:07:52.771Z,17.40
2019-04-05T04:08:52.759Z,16.90
2019-04-05T04:09:52.733Z,17.10
2019-04-05T04:10:52.720Z,16.60
2019-04-05T04:11:52.696Z,16.80
2019-04-05T04:12:52.676Z,17.70
2019-04-05T04:13:52.655Z,17.20
2019-04-05T04:14:52.651Z,17.10
2019-04-05T04:15:52.626Z,17.50
2019-04-05T04:16:52.596Z,17.20
2019-04-05T04:17:52.583Z,17.40
2019-04-05T04:18:52.559Z,17.80
2019-04-05T04:19:52.544Z,17.00
2019-04-05T04:20:52.522Z,17.00
2019-04-05T04:21:52.522Z,16.70
2019-04-05T04:22:52.478Z,16.90
2019-04-05T04:23:52.465Z,17.80
2019-04-05T04:24:52.449Z,17.00
2019-04-05T04:25:52.426Z,17.30
2019-04-05T04:26:52.409Z,17.10
2019-04-05T04:27:52.382Z,16.80
2019-04-05T04:28:52.365Z,16.40
2019-04-05T04:29:52.340Z,17.80
2019-04-05T04:30:52.326Z,16.50
2019-04-05T04:31:52.315Z,17.50
2019-04-05T04:32:52.286Z,17.20
2019-04-05T04:33:52.270Z,17.50
2019-04-05T04:34:52.246Z,17.90
2019-04-05T04:35:52.226Z,16.30
2019-04-05T04:36:52.205Z,16.50
2019-04-05T04:37:52.181Z,18.10
2019-04-05T04:38:52.169Z,16.80
2019-04-05T04:39:52.150Z,17.10
2019-04-05T04:40:52.152Z,18.10
2019-04-05T04:41:52.109Z,17.10
2019-04-05T04:42:52.090Z,17.20
2019-04-05T04:43:52.073Z,16.70
2019-04-05T04:44:52.058Z,17.80
2019-04-05T04:45:52.027Z,16.50
2019-04-05T04:46:52.009Z,17.10
2019-04-05T04:47:51.995Z,16.50
2019-04-05T04:48:51.968Z,17.10
2019-04-05T04:49:51.953Z,17.30
2019-04-05T04:50:51.927Z,18.70
2019-04-05T04:51:51.918Z,19.90
2019-04-05T04:52:51.890Z,19.70
2019-04-05T04:53:51.877Z,18.90
2019-04-05T04:54:51.850Z,20.00
2019-04-05T04:55:51.834Z,18.20
2019-04-05T04:56:51.810Z,19.30
2019-04-05T04:57:51.796Z,19.70
2019-04-05T04:58:51.772Z,18.80
2019-04-05T04:59:51.748Z,19.70
2019-04-05T05:00:51.731Z,19.10
2019-04-05T05:01:51.738Z,19.50
2019-04-05T05:02:51.700Z,19.70
2019-04-05T05:03:51.675Z,20.30
2019-04-05T05:04:51.658Z,19.70
2019-04-05T05:05:51.628Z,19.10
2019-04-05T05:06:51.618Z,20.40
2019-04-05T05:07:51.598Z,19.70
2019-04-05T05:08:51.645Z,20.50
2019-04-05T05:09:51.559Z,19.20
2019-04-05T05:10:51.534Z,20.20
2019-04-05T05:11:51.518Z,19.50
2019-04-05T05:12:51.498Z,19.90
2019-04-05T05:13:51.474Z,20.20
2019-04-05T05:14:51.455Z,20.20
2019-04-05T05:15:51.435Z,20.30
2019-04-05T05:16:51.415Z,20.20
2019-04-05T05:17:58.413Z,20.20
2019-04-05T05:18:51.374Z,19.90
2019-04-05T05:19:51.354Z,20.10
2019-04-05T05:20:51.340Z,21.50
2019-04-05T05:21:51.319Z,20.00
2019-04-05T05:22:51.296Z,20.50
2019-04-05T05:23:51.277Z,20.50
2019-04-05T05:24:51.254Z,21.40
2019-04-05T05:25:51.235Z,20.10
2019-04-05T05:26:51.222Z,19.80
2019-04-05T05:27:51.205Z,19.70
2019-04-05T05:28:51.176Z,20.40
2019-04-05T05:29:51.156Z,20.20
2019-04-05T05:30:51.141Z,19.90
2019-04-05T05:31:51.124Z,20.40
2019-04-05T05:32:51.100Z,19.90
2019-04-05T05:33:51.097Z,20.00
2019-04-05T05:35:01.458Z,19.70
2019-04-05T05:35:51.037Z,19.60
2019-04-05T05:36:51.018Z,19.10
2019-04-05T05:37:50.997Z,20.50
2019-04-05T05:38:50.977Z,20.50
2019-04-05T05:39:50.958Z,19.80
2019-04-05T05:40:50.939Z,19.50
2019-04-05T05:41:50.926Z,20.20
2019-04-05T05:42:50.903Z,20.80
2019-04-05T05:43:50.887Z,20.40
2019-04-05T05:44:50.856Z,19.80
2019-04-05T05:45:50.846Z,20.60
2019-04-05T05:46:50.822Z,20.60
2019-04-05T05:47:52.432Z,20.50
2019-04-05T05:48:50.783Z,19.90
2019-04-05T05:49:50.761Z,20.80
2019-04-05T05:50:50.742Z,20.90
2019-04-05T05:51:50.731Z,20.10
2019-04-05T05:52:50.710Z,19.70
2019-04-05T05:53:50.685Z,20.70
2019-04-05T05:54:50.660Z,21.30
2019-04-05T05:55:50.653Z,20.30
2019-04-05T05:56:50.627Z,20.80
2019-04-05T05:57:54.317Z,21.00
2019-04-05T05:58:50.585Z,20.00
2019-04-05T05:59:50.571Z,19.70
2019-04-05T06:00:50.557Z,21.10
2019-04-05T06:01:50.529Z,20.10
2019-04-05T06:02:50.521Z,20.80
2019-04-05T06:03:50.488Z,20.80
2019-04-05T06:04:50.474Z,20.00
2019-04-05T06:06:03.221Z,20.20
2019-04-05T06:06:50.435Z,20.20
2019-04-05T06:07:50.418Z,19.70
2019-04-05T06:08:50.392Z,19.90
2019-04-05T06:09:50.372Z,19.20
2019-04-05T06:10:50.357Z,20.10
2019-04-05T06:11:50.335Z,19.90
2019-04-05T06:12:50.322Z,20.10
2019-04-05T06:13:50.329Z,19.60
2019-04-05T06:14:50.281Z,19.90
2019-04-05T06:15:50.257Z,19.20
2019-04-05T06:16:50.239Z,19.50
2019-04-05T06:17:50.225Z,19.20
2019-04-05T06:18:50.198Z,18.60
2019-04-05T06:19:50.179Z,18.90
2019-04-05T06:20:50.160Z,20.30
2019-04-05T06:21:50.143Z,19.40
2019-04-05T06:22:50.124Z,19.40
2019-04-05T06:23:50.103Z,19.30
2019-04-05T06:24:50.089Z,19.50
2019-04-05T06:25:50.069Z,19.30
2019-04-05T06:26:50.059Z,18.80
2019-04-05T06:27:50.033Z,18.00
2019-04-05T06:28:50.174Z,18.30
2019-04-05T06:29:49.987Z,19.00
2019-04-05T06:30:49.973Z,19.40
2019-04-05T06:31:49.961Z,18.20
2019-04-05T06:32:49.933Z,19.10
2019-04-05T06:33:49.917Z,18.50
2019-04-05T06:34:49.895Z,19.10
2019-04-05T06:35:49.879Z,19.10
2019-04-05T06:36:51.269Z,19.10
2019-04-05T06:37:49.846Z,18.70
2019-04-05T06:38:49.825Z,18.50
2019-04-05T06:39:49.817Z,18.40
2019-04-05T06:40:49.794Z,19.80
2019-04-05T06:41:49.767Z,20.80
2019-04-05T06:42:49.760Z,22.40
2019-04-05T06:43:49.734Z,22.90
2019-04-05T06:44:49.715Z,23.80
2019-04-05T06:45:49.744Z,24.20
2019-04-05T06:46:49.679Z,24.70
2019-04-05T06:47:49.672Z,25.80
2019-04-05T06:48:49.642Z,26.20
2019-04-05T06:49:49.627Z,26.90
2019-04-05T06:50:49.605Z,27.80
2019-04-05T06:51:49.592Z,28.20
2019-04-05T06:52:49.574Z,29.40
2019-04-05T06:53:49.552Z,29.40
2019-04-05T06:54:49.538Z,29.90
2019-04-05T06:55:49.526Z,29.50
2019-04-05T06:56:49.508Z,29.70
2019-04-05T06:57:49.486Z,29.30
2019-04-05T06:58:49.474Z,30.40
2019-04-05T06:59:49.456Z,29.00
2019-04-05T07:00:56.802Z,30.40
2019-04-05T07:01:49.420Z,30.20
2019-04-05T07:02:49.413Z,30.70
2019-04-05T07:03:49.388Z,30.60
2019-04-05T07:04:49.386Z,31.20
2019-04-05T07:05:49.366Z,30.10
2019-04-05T07:06:49.341Z,29.50
2019-04-05T07:07:49.331Z,29.90
2019-04-05T07:08:54.096Z,30.70
2019-04-05T07:09:49.298Z,32.00
2019-04-05T07:10:49.284Z,32.00
2019-04-05T07:11:49.264Z,32.80
2019-04-05T07:12:49.272Z,32.40
2019-04-05T07:13:49.232Z,33.70
2019-04-05T07:14:49.220Z,33.40
2019-04-05T07:15:49.203Z,33.40
2019-04-05T07:16:49.192Z,33.60
2019-04-05T07:17:49.176Z,33.40
2019-04-05T07:18:49.162Z,33.40
2019-04-05T07:19:49.154Z,34.60
2019-04-05T07:20:49.136Z,35.60
2019-04-05T07:21:49.121Z,34.20
2019-04-05T07:22:49.100Z,36.70
2019-04-05T07:23:49.096Z,36.60
2019-04-05T07:24:49.605Z,36.20
2019-04-05T07:25:49.059Z,36.40
2019-04-05T07:26:49.042Z,36.20
2019-04-05T07:27:49.026Z,35.20
2019-04-05T07:28:49.017Z,35.80
2019-04-05T07:29:49.000Z,35.80
2019-04-05T07:30:48.995Z,35.60
2019-04-05T07:31:48.968Z,34.30
2019-04-05T07:32:48.967Z,33.90
2019-04-05T07:33:48.933Z,35.90
2019-04-05T07:34:48.927Z,35.00
2019-04-05T07:35:48.906Z,35.20
2019-04-05T07:36:48.897Z,34.00
2019-04-05T07:37:48.885Z,36.40
2019-04-05T07:38:48.866Z,34.50
2019-04-05T07:39:48.910Z,35.40
2019-04-05T07:40:48.832Z,36.40
2019-04-05T07:41:48.824Z,35.70
2019-04-05T07:42:48.808Z,36.00
2019-04-05T07:43:48.793Z,37.30
2019-04-05T07:44:48.774Z,36.40
2019-04-05T07:45:48.763Z,36.20
2019-04-05T07:46:48.744Z,37.90
2019-04-05T07:47:48.730Z,37.50
2019-04-05T07:48:48.729Z,36.10
2019-04-05T07:49:48.700Z,37.40
2019-04-05T07:50:48.685Z,37.90
2019-04-05T07:51:48.671Z,38.60
2019-04-05T07:52:48.662Z,39.60
2019-04-05T07:53:48.640Z,40.20
2019-04-05T07:54:48.626Z,39.10
2019-04-05T07:55:48.617Z,40.00
2019-04-05T07:56:48.597Z,38.30
2019-04-05T07:57:48.590Z,39.70
2019-04-05T07:58:48.567Z,40.70
2019-04-05T07:59:48.555Z,40.50
2019-04-05T08:00:48.536Z,40.50
2019-04-05T08:01:48.522Z,42.20
2019-04-05T08:02:48.507Z,41.10
2019-04-05T08:03:48.489Z,40.70
2019-04-05T08:04:48.477Z,41.70
2019-04-05T08:05:48.465Z,41.30
2019-04-05T08:06:48.446Z,42.40
2019-04-05T08:07:48.431Z,43.20
2019-04-05T08:08:48.427Z,44.00
2019-04-05T08:09:48.405Z,42.30
2019-04-05T08:10:48.387Z,43.40
2019-04-05T08:11:48.368Z,44.10
2019-04-05T08:12:48.357Z,44.50
2019-04-05T08:13:48.337Z,44.30
2019-04-05T08:14:48.321Z,44.70
2019-04-05T08:15:48.307Z,45.70
2019-04-05T08:16:48.287Z,43.60
2019-04-05T08:17:48.273Z,44.80
2019-04-05T08:18:57.510Z,45.20
2019-04-05T08:19:48.243Z,44.80
2019-04-05T08:20:48.231Z,44.30
2019-04-05T08:21:48.210Z,45.90
2019-04-05T08:22:48.197Z,44.40
2019-04-05T08:23:48.178Z,44.50
2019-04-05T08:24:48.161Z,43.50
2019-04-05T08:25:48.205Z,43.90
2019-04-05T08:26:48.133Z,45.70
2019-04-05T08:27:48.115Z,45.70
2019-04-05T08:28:48.097Z,46.00
2019-04-05T08:29:48.080Z,44.40
2019-04-05T08:30:48.074Z,44.80
2019-04-05T08:31:48.045Z,44.20
2019-04-05T08:32:48.036Z,46.50
2019-04-05T08:33:48.011Z,46.10
2019-04-05T08:34:48.001Z,45.70
2019-04-05T08:35:47.987Z,44.00
2019-04-05T08:36:47.971Z,44.40
2019-04-05T08:37:47.947Z,43.70
2019-04-05T08:38:47.930Z,44.70
2019-04-05T08:39:47.921Z,44.50
2019-04-05T08:40:47.899Z,46.10
2019-04-05T08:41:47.881Z,47.20
2019-04-05T08:42:47.924Z,46.60
2019-04-05T08:43:47.849Z,46.50
2019-04-05T08:44:47.835Z,46.80
2019-04-05T08:45:47.819Z,48.50
2019-04-05T08:46:47.798Z,46.90
2019-04-05T08:47:47.790Z,47.50
2019-04-05T08:48:47.777Z,46.80
2019-04-05T08:49:47.752Z,47.70
2019-04-05T08:50:47.736Z,46.90
2019-04-05T08:51:47.714Z,48.30
2019-04-05T08:52:47.715Z,44.80
2019-04-05T08:53:47.683Z,45.00
2019-04-05T08:54:47.667Z,46.20
2019-04-05T08:55:47.653Z,46.30
2019-04-05T08:56:47.634Z,46.50
2019-04-05T08:57:48.180Z,45.40
2019-04-05T08:58:47.603Z,46.60
2019-04-05T08:59:47.585Z,44.80
2019-04-05T09:00:47.567Z,46.10
2019-04-05T09:01:47.548Z,47.10
2019-04-05T09:02:47.578Z,44.80
2019-04-05T09:03:47.524Z,46.60
2019-04-05T09:04:47.501Z,48.40
2019-04-05T09:05:47.481Z,48.30
2019-04-05T09:06:47.467Z,47.50
2019-04-05T09:07:47.452Z,46.70
2019-04-05T09:08:47.437Z,47.10
2019-04-05T09:09:47.434Z,48.70
2019-04-05T09:10:47.404Z,46.30
2019-04-05T09:11:47.391Z,47.40
2019-04-05T09:12:47.368Z,46.70
2019-04-05T09:13:47.352Z,47.70
2019-04-05T09:14:47.342Z,48.70
2019-04-05T09:15:47.320Z,48.40
2019-04-05T09:16:47.307Z,50.40
2019-04-05T09:17:47.294Z,50.20
2019-04-05T09:18:49.385Z,50.40
2019-04-05T09:19:47.257Z,49.90
2019-04-05T09:20:47.236Z,49.40
2019-04-05T09:21:47.222Z,50.20
2019-04-05T09:22:47.200Z,52.20
2019-04-05T09:23:47.184Z,51.90
2019-04-05T09:24:47.175Z,51.50
2019-04-05T09:25:47.152Z,52.20
2019-04-05T09:26:47.132Z,52.40
2019-04-05T09:27:47.117Z,52.50
2019-04-05T09:28:47.098Z,51.60
2019-04-05T09:29:47.087Z,49.90
2019-04-05T09:30:47.080Z,52.30
2019-04-05T09:31:47.054Z,51.20
2019-04-05T09:32:47.038Z,50.20
2019-04-05T09:33:47.027Z,52.30
2019-04-05T09:34:47.001Z,53.80
2019-04-05T09:35:46.980Z,51.10
2019-04-05T09:36:46.966Z,51.10
2019-04-05T09:37:46.948Z,51.80
2019-04-05T09:38:46.934Z,50.40
2019-04-05T09:39:46.917Z,50.40
2019-04-05T09:40:46.902Z,51.80
2019-04-05T09:41:46.884Z,51.80
2019-04-05T09:42:46.869Z,52.10
2019-04-05T09:43:46.851Z,52.00
2019-04-05T09:44:46.919Z,51.80
2019-04-05T09:45:46.820Z,53.10
2019-04-05T09:46:50.898Z,50.50
2019-04-05T09:47:46.786Z,50.40
2019-04-05T09:48:46.777Z,50.70
2019-04-05T09:49:46.756Z,51.80
2019-04-05T09:50:46.740Z,50.50
2019-04-05T09:51:46.725Z,52.20
2019-04-05T09:52:46.750Z,51.00
2019-04-05T09:53:46.683Z,50.20
2019-04-05T09:54:46.666Z,50.80
2019-04-05T09:55:46.650Z,49.70
2019-04-05T09:56:46.642Z,49.70
2019-04-05T09:57:46.620Z,51.40
2019-04-05T09:58:46.602Z,50.50
2019-04-05T09:59:46.587Z,50.80
2019-04-05T10:00:46.569Z,50.10
2019-04-05T10:01:46.552Z,51.10
2019-04-05T10:02:46.532Z,51.50
2019-04-05T10:03:46.519Z,51.00
2019-04-05T10:04:46.502Z,51.60
2019-04-05T10:05:46.486Z,52.30
2019-04-05T10:06:46.470Z,50.30
2019-04-05T10:07:54.614Z,51.00
2019-04-05T10:08:46.433Z,50.40
2019-04-05T10:09:46.419Z,50.00
2019-04-05T10:10:46.401Z,49.20
2019-04-05T10:11:46.386Z,48.60
2019-04-05T10:12:46.370Z,49.30
2019-04-05T10:13:46.354Z,51.40
2019-04-05T10:14:46.334Z,50.10
2019-04-05T10:15:46.317Z,49.40
2019-04-05T10:16:46.303Z,50.60
2019-04-05T10:17:46.291Z,50.50
2019-04-05T10:18:46.273Z,49.20
2019-04-05T10:19:50.072Z,48.30
2019-04-05T10:20:46.242Z,49.10
2019-04-05T10:21:46.218Z,47.80
2019-04-05T10:22:46.205Z,48.80
2019-04-05T10:23:46.189Z,47.90
2019-04-05T10:24:46.170Z,47.40
2019-04-05T10:25:46.155Z,47.70
2019-04-05T10:26:46.155Z,48.00
2019-04-05T10:27:46.122Z,46.70
2019-04-05T10:28:46.112Z,48.90
2019-04-05T10:29:46.096Z,48.60
2019-04-05T10:30:46.079Z,48.80
2019-04-05T10:31:46.065Z,47.20
2019-04-05T10:32:46.471Z,47.10
2019-04-05T10:33:46.036Z,47.60
2019-04-05T10:34:46.273Z,48.90
2019-04-05T10:35:45.999Z,49.30
2019-04-05T10:36:45.993Z,49.10
2019-04-05T10:37:45.967Z,47.60
2019-04-05T10:38:45.953Z,48.20
2019-04-05T10:39:45.935Z,49.20
2019-04-05T10:40:45.921Z,48.80
2019-04-05T10:41:45.900Z,47.30
2019-04-05T10:42:45.894Z,46.70
2019-04-05T10:43:45.871Z,48.40
2019-04-05T10:44:45.863Z,45.50
2019-04-05T10:45:45.851Z,46.30
2019-04-05T10:46:45.825Z,47.80
2019-04-05T10:47:45.820Z,47.20
2019-04-05T10:48:45.798Z,48.30
2019-04-05T10:49:45.783Z,49.50
2019-04-05T10:50:45.765Z,49.30
2019-04-05T10:51:45.758Z,48.10
2019-04-05T10:52:45.738Z,47.30
2019-04-05T10:53:45.721Z,47.50
2019-04-05T10:54:45.707Z,46.90
2019-04-05T10:55:45.695Z,46.90
2019-04-05T10:56:45.680Z,45.20
2019-04-05T10:57:45.671Z,43.90
2019-04-05T10:58:45.668Z,45.70
2019-04-05T10:59:45.643Z,45.40
2019-04-05T11:00:45.626Z,46.00
2019-04-05T11:01:45.618Z,45.80
2019-04-05T11:02:45.597Z,46.70
2019-04-05T11:03:45.585Z,46.80
2019-04-05T11:04:45.577Z,44.20
2019-04-05T11:05:45.558Z,45.10
2019-04-05T11:06:45.549Z,45.30
2019-04-05T11:07:45.536Z,43.60
2019-04-05T11:08:45.524Z,44.80
2019-04-05T11:09:45.513Z,43.90
2019-04-05T11:10:45.497Z,43.50
2019-04-05T11:11:45.485Z,42.70
2019-04-05T11:12:45.480Z,43.50
2019-04-05T11:13:45.463Z,45.00
2019-04-05T11:14:45.453Z,42.20
2019-04-05T11:15:45.442Z,42.50
2019-04-05T11:16:57.504Z,42.40
2019-04-05T11:17:45.420Z,42.50
2019-04-05T11:18:45.407Z,42.20
2019-04-05T11:19:45.402Z,42.50
2019-04-05T11:20:48.946Z,44.20
2019-04-05T11:21:47.883Z,43.70
2019-04-05T11:22:46.847Z,43.30
2019-04-05T11:23:45.362Z,42.20
2019-04-05T11:24:45.346Z,42.70
2019-04-05T11:25:45.342Z,42.30
2019-04-05T11:26:45.331Z,41.30
2019-04-05T11:27:45.323Z,40.90
2019-04-05T11:28:45.314Z,41.70
2019-04-05T11:29:45.301Z,41.90
2019-04-05T11:30:45.299Z,40.80
2019-04-05T11:31:56.453Z,41.60
2019-04-05T11:32:45.280Z,42.20
2019-04-05T11:33:45.268Z,41.60
2019-04-05T11:34:45.277Z,41.90
2019-04-05T11:35:45.253Z,40.30
2019-04-05T11:36:45.247Z,39.80
2019-04-05T11:37:45.661Z,40.90
2019-04-05T11:38:45.235Z,41.40
2019-04-05T11:39:48.277Z,41.20
2019-04-05T11:40:45.220Z,41.60
2019-04-05T11:41:45.217Z,40.30
2019-04-05T11:42:45.201Z,40.80
2019-04-05T11:43:45.197Z,39.20
2019-04-05T11:44:45.195Z,38.60
2019-04-05T11:45:45.186Z,40.10
2019-04-05T11:46:45.182Z,39.10
2019-04-05T11:47:45.174Z,41.00
2019-04-05T11:48:45.171Z,40.00
2019-04-05T11:49:45.159Z,38.30
2019-04-05T11:50:45.154Z,38.90
2019-04-05T11:51:45.150Z,40.30
2019-04-05T11:52:45.147Z,38.70
2019-04-05T11:53:45.140Z,36.60
2019-04-05T11:54:45.955Z,37.00
2019-04-05T11:55:46.776Z,38.10
2019-04-05T11:56:45.123Z,36.30
2019-04-05T11:57:45.119Z,35.80
2019-04-05T11:58:45.113Z,35.30
2019-04-05T11:59:45.110Z,35.10
2019-04-05T12:00:45.108Z,36.00
2019-04-05T12:01:45.098Z,35.00
2019-04-05T12:02:45.100Z,36.10
2019-04-05T12:03:45.090Z,34.50
2019-04-05T12:04:45.090Z,34.70
2019-04-05T12:05:45.080Z,34.10
2019-04-05T12:06:45.088Z,33.90
2019-04-05T12:07:45.072Z,34.80
2019-04-05T12:08:45.076Z,33.50
2019-04-05T12:09:45.949Z,34.50
2019-04-05T12:10:45.061Z,33.40
2019-04-05T12:11:46.465Z,33.10
2019-04-05T12:12:45.051Z,33.50
2019-04-05T12:13:47.498Z,32.90
2019-04-05T12:14:45.058Z,33.10
2019-04-05T12:15:45.041Z,33.20
2019-04-05T12:16:45.035Z,34.20
2019-04-05T12:17:45.031Z,33.70
2019-04-05T12:18:45.026Z,34.10
2019-04-05T12:19:45.020Z,35.20
2019-04-05T12:20:52.041Z,33.60
2019-04-05T12:21:45.015Z,33.40
2019-04-05T12:22:45.011Z,33.00
2019-04-05T12:23:45.012Z,33.70
2019-04-05T12:24:47.473Z,32.30
2019-04-05T12:25:45.001Z,33.00
2019-04-05T12:26:44.999Z,33.60
2019-04-05T12:27:44.994Z,34.10
2019-04-05T12:28:44.989Z,33.30
2019-04-05T12:29:44.984Z,32.60
2019-04-05T12:30:46.039Z,33.60
2019-04-05T12:31:44.981Z,32.70
2019-04-05T12:32:46.576Z,33.90
2019-04-05T12:33:46.908Z,33.80
2019-04-05T12:34:44.968Z,32.80
2019-04-05T12:35:44.965Z,33.20
2019-04-05T12:36:44.961Z,33.40
2019-04-05T12:37:50.426Z,33.80
2019-04-05T12:38:44.956Z,33.30
2019-04-05T12:39:44.952Z,33.10
2019-04-05T12:40:44.949Z,32.70
2019-04-05T12:41:45.115Z,33.00
2019-04-05T12:42:44.944Z,33.40
2019-04-05T12:43:44.939Z,32.90
2019-04-05T12:44:45.490Z,31.70
2019-04-05T12:45:45.311Z,33.00
2019-04-05T12:46:45.924Z,34.00
2019-04-05T12:47:45.700Z,33.30
2019-04-05T12:48:46.383Z,33.00
2019-04-05T12:49:45.467Z,33.20
2019-04-05T12:50:45.447Z,32.80
2019-04-05T12:51:45.587Z,32.50
2019-04-05T12:52:44.913Z,33.10